Time;durP1;ratioP1;P1;durP2;ratioP2;P2;SDS_P1;SDS_P2;PMS_P1;PMS_P2;Temp;Humidity;BMP_temperature;BMP_pressure;BME280_temperature;BME280_humidity;BME280_pressure;Samples;Min_cycle;Max_cycle;Signal;HPM_P1;HPM_P2
2022/05/06 00:02:22;;;;;;;19.95;10.23;;;;;;;11.02;69.92;99688.81;1694227;84;21001;-82
2022/05/06 00:04:49;;;;;;;25.48;11.03;;;;;;;10.99;69.77;99687.13;1696928;84;20998;-81
2022/05/06 00:07:16;;;;;;;17.95;10.58;;;;;;;10.95;69.18;99692.83;1696491;84;21465;-80
2022/05/06 00:09:44;;;;;;;20.97;10.13;;;;;;;10.90;70.99;99692.48;1676142;84;21486;-82
2022/05/06 00:12:12;;;;;;;21.02;9.68;;;;;;;10.86;70.31;99693.00;1675132;84;20979;-82
2022/05/06 00:14:40;;;;;;;21.77;9.40;;;;;;;10.82;71.24;99695.66;1660919;85;21001;-84
2022/05/06 00:17:06;;;;;;;21.42;10.05;;;;;;;10.78;70.29;99697.44;1666083;85;20998;-83
2022/05/06 00:19:34;;;;;;;21.93;10.80;;;;;;;10.70;69.85;99700.19;1663465;85;21020;-81
2022/05/06 00:22:00;;;;;;;19.75;9.58;;;;;;;10.66;72.63;99705.45;1673890;85;20971;-82
2022/05/06 00:24:28;;;;;;;19.05;9.85;;;;;;;10.61;71.21;99706.83;1653259;85;21088;-82
2022/05/06 00:26:59;;;;;;;17.52;9.33;;;;;;;10.59;71.30;99708.59;1674110;85;21533;-82
2022/05/06 00:29:25;;;;;;;15.72;8.53;;;;;;;10.58;71.94;99704.70;1674165;85;20981;-80
2022/05/06 00:31:52;;;;;;;16.17;8.43;;;;;;;10.57;71.48;99705.61;1674111;86;21478;-79
2022/05/06 00:34:19;;;;;;;15.70;8.70;;;;;;;10.55;71.11;99697.82;1670459;85;20970;-81
2022/05/06 00:36:47;;;;;;;24.72;8.78;;;;;;;10.53;71.25;99702.19;1659225;85;20978;-81
2022/05/06 00:39:14;;;;;;;28.47;8.20;;;;;;;10.52;72.13;99703.94;1673931;85;20989;-79
2022/05/06 00:41:40;;;;;;;22.62;8.65;;;;;;;10.50;71.88;99704.82;1674237;86;21403;-82
2022/05/06 00:44:09;;;;;;;30.62;8.23;;;;;;;10.49;71.53;99713.07;1673833;85;20971;-82
2022/05/06 00:46:37;;;;;;;36.08;8.28;;;;;;;10.47;71.14;99704.89;1675142;85;21017;-80
2022/05/06 00:49:08;;;;;;;26.55;7.90;;;;;;;10.46;71.14;99707.91;1674661;85;21034;-79
2022/05/06 00:51:36;;;;;;;20.80;7.30;;;;;;;10.44;72.16;99710.97;1691505;84;20971;-81
2022/05/06 00:54:03;;;;;;;23.25;7.70;;;;;;;10.43;72.87;99710.56;1673631;85;20970;-80
2022/05/06 00:56:30;;;;;;;17.12;8.20;;;;;;;10.44;72.96;99717.47;1691575;84;21516;-80
2022/05/06 00:58:56;;;;;;;11.48;6.55;;;;;;;10.43;72.43;99717.06;1673895;85;21336;-81
2022/05/06 01:01:23;;;;;;;15.80;6.95;;;;;;;10.42;73.29;99716.63;1670234;85;21036;-81
2022/05/06 01:03:50;;;;;;;14.43;7.75;;;;;;;10.42;74.62;99718.37;1674029;85;20983;-81
2022/05/06 01:06:17;;;;;;;15.00;6.65;;;;;;;10.40;73.43;99711.89;1691524;84;21019;-79
2022/05/06 01:08:48;;;;;;;21.15;7.85;;;;;;;10.40;73.06;99707.99;1673227;85;21506;-82
2022/05/06 01:11:15;;;;;;;17.02;8.30;;;;;;;10.37;71.19;99713.25;1674143;85;21400;-82
2022/05/06 01:13:45;;;;;;;17.75;8.63;;;;;;;10.33;72.66;99717.63;1665767;85;20991;-81
2022/05/06 01:16:14;;;;;;;18.70;8.75;;;;;;;10.32;72.91;99715.89;1687997;85;20986;-79
2022/05/06 01:18:42;;;;;;;17.20;8.23;;;;;;;10.30;73.70;99715.51;1669137;85;21006;-82
2022/05/06 01:21:09;;;;;;;21.17;8.08;;;;;;;10.27;73.17;99716.39;1685050;85;21465;-82
2022/05/06 01:23:37;;;;;;;17.50;8.20;;;;;;;10.25;73.40;99706.91;1670558;85;20971;-82
2022/05/06 01:26:06;;;;;;;12.35;7.62;;;;;;;10.19;73.99;99707.84;1687473;85;20975;-81
2022/05/06 01:28:35;;;;;;;15.93;8.45;;;;;;;10.16;73.06;99704.82;1689025;84;21518;-79
2022/05/06 01:31:02;;;;;;;17.05;7.72;;;;;;;10.12;74.47;99703.15;1689095;85;21033;-84
2022/05/06 01:33:31;;;;;;;18.30;8.25;;;;;;;10.09;74.07;99707.10;1689124;85;21470;-82
2022/05/06 01:36:02;;;;;;;15.45;8.13;;;;;;;10.05;74.64;99701.98;1687598;85;21007;-80
2022/05/06 01:38:51;;;;;;;19.62;8.75;;;;;;;10.01;73.93;99706.34;1677639;85;20995;-81
2022/05/06 01:41:24;;;;;;;16.10;7.85;;;;;;;9.96;73.21;99697.30;1688933;84;20991;-80
2022/05/06 01:44:08;;;;;;;12.58;7.42;;;;;;;9.91;75.11;99699.11;1687447;85;21561;-81
2022/05/06 01:46:36;;;;;;;19.57;7.15;;;;;;;9.87;73.61;99690.94;1674455;84;20986;-80
2022/05/06 01:49:06;;;;;;;24.30;7.87;;;;;;;9.83;73.83;99691.86;1689344;85;20971;-83
2022/05/06 01:51:36;;;;;;;41.30;8.93;;;;;;;9.79;73.62;99694.49;1683445;85;21462;-81
2022/05/06 01:54:04;;;;;;;40.88;9.30;;;;;;;9.75;75.54;99684.61;1686807;85;20983;-81
2022/05/06 01:56:32;;;;;;;49.70;8.50;;;;;;;9.72;76.01;99686.78;1666731;85;20983;-81
2022/05/06 01:58:59;;;;;;;22.27;8.18;;;;;;;9.69;75.78;99685.98;1689155;84;20962;-81
2022/05/06 02:01:25;;;;;;;28.90;7.65;;;;;;;9.64;72.23;99683.42;1688581;85;21109;-80
2022/05/06 02:06:38;;;;;;;15.48;7.28;;;;;;;9.56;74.32;99694.34;1688545;84;20982;-80
2022/05/06 02:09:18;;;;;;;19.95;7.30;;;;;;;9.54;74.41;99698.69;1688962;85;21015;-79
2022/05/06 02:11:46;;;;;;;14.47;6.62;;;;;;;9.54;74.67;99703.43;1677988;84;21486;-80
2022/05/06 02:14:13;;;;;;;16.25;6.95;;;;;;;9.54;74.61;99702.13;1692820;84;20959;-81
2022/05/06 02:16:50;;;;;;;14.85;6.83;;;;;;;9.55;75.96;99701.72;1693146;84;20990;-82
2022/05/06 02:19:35;;;;;;;12.43;6.53;;;;;;;9.57;75.28;99706.45;1696748;84;21046;-78
2022/05/06 02:22:20;;;;;;;14.93;6.05;;;;;;;9.58;75.31;99710.75;1696759;84;20989;-78
2022/05/06 02:24:51;;;;;;;13.65;5.90;;;;;;;9.62;75.31;99709.84;1694465;84;21073;-79
2022/05/06 02:27:31;;;;;;;13.55;6.25;;;;;;;9.65;75.12;99707.22;1691964;84;21458;-81
2022/05/06 02:35:29;;;;;;;15.00;6.30;;;;;;;9.69;75.47;99717.99;1696199;84;21022;-81
2022/05/06 02:37:58;;;;;;;18.87;6.70;;;;;;;9.66;74.72;99716.72;1696918;84;20970;-81
2022/05/06 02:40:27;;;;;;;10.85;6.83;;;;;;;9.64;74.72;99723.66;1696821;84;20998;-82
2022/05/06 02:42:55;;;;;;;13.93;7.78;;;;;;;9.62;75.53;99726.71;1670910;85;21005;-81
2022/05/06 02:45:22;;;;;;;11.33;7.25;;;;;;;9.55;75.50;99725.08;1695041;84;20985;-81
2022/05/06 02:47:49;;;;;;;13.08;7.05;;;;;;;9.51;75.59;99725.55;1696843;84;21057;-82
2022/05/06 02:50:15;;;;;;;16.67;7.10;;;;;;;9.47;75.63;99730.77;1695678;84;20981;-79
2022/05/06 02:52:42;;;;;;;15.75;7.58;;;;;;;9.42;76.02;99725.63;1696808;84;20998;-82
2022/05/06 02:55:09;;;;;;;16.93;7.42;;;;;;;9.38;75.86;99721.80;1696605;84;21461;-81
2022/05/06 02:57:36;;;;;;;13.22;7.42;;;;;;;9.32;75.63;99718.81;1693635;84;21068;-83
2022/05/06 03:00:04;;;;;;;12.00;7.62;;;;;;;9.24;76.30;99723.23;1696510;84;21037;-83
2022/05/06 03:02:31;;;;;;;12.47;7.78;;;;;;;9.18;76.41;99729.33;1676748;84;20959;-86
2022/05/06 03:04:58;;;;;;;10.85;7.17;;;;;;;9.15;76.43;99730.64;1697083;84;20934;-86
2022/05/06 03:07:24;;;;;;;14.30;8.30;;;;;;;9.11;76.84;99732.84;1688640;84;20998;-84
2022/05/06 03:09:55;;;;;;;12.00;7.67;;;;;;;9.05;74.23;99740.27;1671864;84;21089;-86
2022/05/06 03:12:26;;;;;;;17.42;7.85;;;;;;;9.00;75.64;99744.62;1696200;84;21018;-85
2022/05/06 03:14:53;;;;;;;15.20;8.33;;;;;;;8.94;75.52;99742.93;1674560;85;21022;-86
2022/05/06 03:17:25;;;;;;;15.98;7.03;;;;;;;8.90;75.12;99745.57;1689751;84;20978;-87
2022/05/06 03:19:51;;;;;;;15.63;8.05;;;;;;;8.88;75.55;99748.61;1690222;85;20955;-85
2022/05/06 03:22:18;;;;;;;13.13;7.00;;;;;;;8.86;74.62;99747.32;1689937;85;21014;-86
2022/05/06 03:24:46;;;;;;;13.80;6.78;;;;;;;8.88;76.04;99740.39;1689984;85;20995;-86
2022/05/06 03:29:58;;;;;;;14.18;6.78;;;;;;;8.89;76.24;99742.53;1689355;85;20963;-81
2022/05/06 03:32:24;;;;;;;15.63;8.15;;;;;;;8.89;75.65;99741.24;1688692;85;20970;-80
2022/05/06 03:34:51;;;;;;;13.90;6.97;;;;;;;8.94;76.25;99744.67;1689121;85;20967;-79
2022/05/06 03:37:19;;;;;;;16.02;7.12;;;;;;;9.00;75.48;99756.73;1689096;84;20966;-79
2022/05/06 03:39:46;;;;;;;17.65;7.37;;;;;;;9.06;75.45;99756.23;1689155;85;21474;-79
2022/05/06 03:42:13;;;;;;;11.85;6.85;;;;;;;9.11;75.51;99761.38;1688501;85;20978;-80
2022/05/06 03:44:40;;;;;;;13.98;7.75;;;;;;;9.13;74.15;99755.33;1686023;85;20979;-80
2022/05/06 03:47:07;;;;;;;15.43;7.33;;;;;;;9.19;73.97;99755.71;1685402;85;20990;-80
2022/05/06 03:49:35;;;;;;;13.13;6.67;;;;;;;9.23;74.83;99754.81;1689112;85;21010;-81
2022/05/06 03:52:03;;;;;;;16.37;7.83;;;;;;;9.30;74.88;99759.05;1688365;84;20978;-82
2022/05/06 03:54:31;;;;;;;14.23;7.28;;;;;;;9.39;74.75;99755.53;1685204;85;20967;-81
2022/05/06 03:56:58;;;;;;;15.55;7.30;;;;;;;9.47;74.90;99756.72;1690379;85;21022;-82
2022/05/06 03:59:25;;;;;;;14.70;7.83;;;;;;;9.52;74.83;99753.20;1688682;84;20991;-83
2022/05/06 04:01:53;;;;;;;13.75;7.97;;;;;;;9.57;75.05;99758.38;1688253;85;20979;-79
2022/05/06 04:04:21;;;;;;;20.52;8.60;;;;;;;9.63;74.76;99763.50;1688650;85;21010;-81
2022/05/06 04:06:48;;;;;;;13.53;7.92;;;;;;;9.66;75.02;99764.75;1689066;84;21446;-81
2022/05/06 04:09:15;;;;;;;16.73;7.58;;;;;;;9.69;74.46;99769.92;1687417;85;21030;-83
2022/05/06 04:11:42;;;;;;;17.17;7.37;;;;;;;9.74;74.63;99760.77;1688169;84;20947;-82
2022/05/06 04:14:10;;;;;;;16.12;7.67;;;;;;;9.79;73.87;99767.20;1673941;85;21049;-79
2022/05/06 04:16:39;;;;;;;11.70;7.78;;;;;;;9.84;73.94;99768.02;1674130;85;21042;-81
2022/05/06 04:19:07;;;;;;;13.72;7.28;;;;;;;9.86;72.79;99765.82;1674085;85;21538;-85
2022/05/06 04:24:19;;;;;;;16.75;7.05;;;;;;;9.92;72.85;99767.05;1673803;85;21529;-80
2022/05/06 04:26:46;;;;;;;15.45;7.45;;;;;;;9.92;73.10;99777.88;1674155;85;20939;-82
2022/05/06 04:29:13;;;;;;;13.65;6.05;;;;;;;9.98;74.23;99779.11;1674355;85;21024;-83
2022/05/06 04:31:40;;;;;;;11.70;5.70;;;;;;;10.05;72.98;99781.22;1691503;84;20983;-79
2022/05/06 04:34:09;;;;;;;14.98;6.17;;;;;;;10.10;73.93;99778.95;1673780;85;21014;-83
2022/05/06 04:36:39;;;;;;;10.35;5.87;;;;;;;10.18;74.01;99782.76;1674173;85;20958;-81
2022/05/06 04:39:05;;;;;;;13.98;6.12;;;;;;;10.29;73.54;99780.05;1655065;85;21509;-79
2022/05/06 04:41:34;;;;;;;16.77;6.17;;;;;;;10.40;73.30;99779.92;1673647;86;20970;-80
2022/05/06 04:44:01;;;;;;;13.53;6.40;;;;;;;10.53;72.88;99796.64;1670808;85;21005;-81
2022/05/06 04:46:29;;;;;;;13.53;7.20;;;;;;;10.69;73.00;99788.63;1673507;85;20990;-79
2022/05/06 04:48:56;;;;;;;11.70;7.20;;;;;;;10.85;73.04;99790.11;1674086;85;20990;-83
2022/05/06 04:51:22;;;;;;;15.45;6.90;;;;;;;11.04;72.67;99793.30;1673064;85;20922;-82
2022/05/06 04:53:54;;;;;;;13.50;7.42;;;;;;;11.22;72.56;99791.27;1643431;86;21093;-82
2022/05/06 04:56:18;;;;;;;16.82;7.30;;;;;;;11.38;72.16;99786.23;1674033;85;20990;-85
2022/05/06 04:58:44;;;;;;;16.12;7.53;;;;;;;11.54;71.86;99792.88;1663652;85;20979;-84
2022/05/06 05:01:13;;;;;;;15.00;7.08;;;;;;;11.69;71.25;99785.22;1663434;85;21121;-86
2022/05/06 05:03:40;;;;;;;16.52;7.30;;;;;;;11.83;70.67;99785.41;1660539;85;20942;-83
2022/05/06 05:06:07;;;;;;;19.62;6.60;;;;;;;11.95;70.31;99793.02;1669476;86;20965;-83
2022/05/06 05:08:34;;;;;;;16.62;6.75;;;;;;;12.03;69.50;99791.56;1691512;84;21023;-82
2022/05/06 05:11:04;;;;;;;13.62;7.75;;;;;;;12.07;69.32;99799.28;1660827;85;21009;-80
2022/05/06 05:13:34;;;;;;;14.78;7.70;;;;;;;12.14;68.63;99798.28;1682736;83;21011;-80
2022/05/06 05:16:01;;;;;;;17.45;7.90;;;;;;;12.16;69.07;99789.59;1654822;86;21028;-82
2022/05/06 05:18:29;;;;;;;11.57;7.72;;;;;;;12.28;69.13;99788.88;1671056;85;21006;-80
2022/05/06 05:20:55;;;;;;;10.65;6.72;;;;;;;12.43;68.99;99786.38;1687688;84;21431;-82
2022/05/06 05:23:23;;;;;;;14.07;7.40;;;;;;;12.57;68.63;99789.14;1692463;84;20991;-81
2022/05/06 05:25:50;;;;;;;17.92;8.08;;;;;;;12.70;68.20;99794.50;1687731;85;20999;-82
2022/05/06 05:28:16;;;;;;;14.50;7.90;;;;;;;12.80;67.86;99797.77;1635112;86;20959;-80
2022/05/06 05:30:43;;;;;;;18.02;8.53;;;;;;;12.93;67.68;99800.47;1695575;84;21442;-79
2022/05/06 05:33:10;;;;;;;14.05;7.50;;;;;;;13.03;66.86;99798.51;1678444;85;20998;-77
2022/05/06 05:35:38;;;;;;;15.23;8.43;;;;;;;13.01;66.38;99795.96;1679215;85;21470;-78
2022/05/06 05:38:06;;;;;;;15.28;7.80;;;;;;;13.05;66.42;99800.21;1664583;85;21167;-78
2022/05/06 05:40:33;;;;;;;19.10;7.42;;;;;;;13.18;66.53;99791.62;1678506;85;20970;-81
2022/05/06 05:43:00;;;;;;;13.53;7.00;;;;;;;13.33;66.15;99789.13;1678094;85;21022;-80
2022/05/06 05:48:21;;;;;;;10.53;6.40;;;;;;;13.56;65.80;99784.59;1654756;85;21022;-80
2022/05/06 05:50:53;;;;;;;13.48;6.67;;;;;;;13.65;64.82;99777.83;1682562;84;21542;-81
2022/05/06 05:53:21;;;;;;;16.80;7.28;;;;;;;13.73;64.73;99779.78;1691104;84;20991;-79
2022/05/06 05:55:49;;;;;;;12.50;6.10;;;;;;;13.85;64.53;99772.52;1691696;84;21502;-79
2022/05/06 05:58:17;;;;;;;12.25;6.67;;;;;;;13.92;63.95;99777.50;1673870;85;20982;-80
2022/05/06 06:00:45;;;;;;;11.35;6.42;;;;;;;13.87;64.10;99771.56;1673570;86;21530;-80
2022/05/06 06:03:12;;;;;;;12.10;6.60;;;;;;;14.00;64.34;99780.36;1674387;85;20990;-82
2022/05/06 06:05:41;;;;;;;12.13;6.90;;;;;;;14.11;64.03;99776.55;1661928;86;21624;-79
2022/05/06 06:08:08;;;;;;;10.95;7.03;;;;;;;14.16;63.95;99772.48;1666545;85;21041;-80
2022/05/06 06:10:37;;;;;;;13.43;6.40;;;;;;;14.28;64.02;99777.81;1666531;84;21034;-81
2022/05/06 06:13:06;;;;;;;10.68;5.95;;;;;;;14.43;63.65;99777.82;1669075;84;21039;-79
2022/05/06 06:15:34;;;;;;;12.63;6.55;;;;;;;14.59;62.61;99782.17;1666627;84;21006;-82
2022/05/06 06:18:00;;;;;;;11.30;6.10;;;;;;;14.67;62.51;99782.78;1649901;84;21009;-78
2022/05/06 06:20:29;;;;;;;12.60;6.40;;;;;;;14.72;62.04;99780.87;1666680;84;20974;-75
2022/05/06 06:22:55;;;;;;;8.65;5.58;;;;;;;14.78;61.81;99782.02;1669769;84;21010;-76
2022/05/06 06:25:22;;;;;;;10.50;6.33;;;;;;;14.84;60.92;99786.17;1667793;84;21406;-75
2022/05/06 06:27:51;;;;;;;14.23;6.08;;;;;;;14.94;61.01;99784.12;1665489;84;21144;-79
2022/05/06 06:30:18;;;;;;;10.75;5.85;;;;;;;15.10;60.30;99781.44;1682045;85;21126;-80
2022/05/06 06:32:45;;;;;;;9.90;5.47;;;;;;;15.21;59.57;99787.62;1663524;84;20998;-79
2022/05/06 06:35:12;;;;;;;8.95;5.55;;;;;;;15.30;58.56;99782.08;1674488;84;21002;-77
2022/05/06 06:37:40;;;;;;;11.08;6.08;;;;;;;15.27;58.87;99775.16;1685269;83;20979;-78
2022/05/06 06:40:08;;;;;;;11.55;6.53;;;;;;;15.37;58.11;99782.72;1680789;84;21026;-75
2022/05/06 06:42:36;;;;;;;11.48;6.03;;;;;;;15.39;58.45;99780.44;1662117;84;21015;-75
2022/05/06 06:45:06;;;;;;;10.38;6.33;;;;;;;15.40;58.36;99776.05;1670759;84;20974;-75
2022/05/06 06:47:53;;;;;;;10.58;6.95;;;;;;;15.46;58.92;99770.17;1663352;85;21004;-75
2022/05/06 06:50:23;;;;;;;11.88;6.37;;;;;;;15.56;59.15;99775.95;1661309;85;21090;-74
2022/05/06 06:53:08;;;;;;;18.98;6.60;;;;;;;15.66;58.71;99772.09;1648354;85;20960;-76
2022/05/06 06:55:35;;;;;;;13.65;7.10;;;;;;;15.81;58.73;99769.40;1674987;83;21067;-77
2022/05/06 06:58:01;;;;;;;10.65;6.10;;;;;;;16.04;58.39;99774.29;1686847;83;21543;-77
2022/05/06 07:00:28;;;;;;;11.20;7.08;;;;;;;16.14;57.92;99773.50;1675187;84;21001;-78
2022/05/06 07:02:57;;;;;;;11.93;6.80;;;;;;;16.30;58.44;99770.69;1685333;83;20998;-79
2022/05/06 07:05:23;;;;;;;10.90;6.37;;;;;;;16.42;57.61;99768.91;1672902;84;21057;-80
2022/05/06 07:11:52;;;;;;;11.70;6.65;;;;;;;16.68;56.61;99770.97;1662407;84;21114;-79
2022/05/06 07:13:06;;;;;;;11.50;6.62;;;;;;;16.90;57.30;99773.63;1665538;84;20974;-81
2022/05/06 07:15:33;;;;;;;10.15;6.40;;;;;;;17.02;56.86;99769.19;1679107;83;21377;-78
2022/05/06 07:17:59;;;;;;;12.68;6.50;;;;;;;17.08;55.89;99772.03;1663815;85;20995;-81
2022/05/06 07:20:26;;;;;;;13.10;6.90;;;;;;;17.08;56.28;99762.83;1664526;84;21517;-79
2022/05/06 07:22:52;;;;;;;10.65;5.72;;;;;;;17.24;56.15;99761.27;1663282;84;21009;-78
2022/05/06 07:25:19;;;;;;;10.10;6.10;;;;;;;17.29;54.31;99761.95;1687880;83;21637;-79
2022/05/06 07:27:45;;;;;;;13.68;6.25;;;;;;;17.43;53.84;99756.57;1672168;84;21038;-82
2022/05/06 07:30:13;;;;;;;9.03;5.50;;;;;;;17.60;54.48;99759.30;1666724;84;21006;-80
2022/05/06 07:32:39;;;;;;;9.23;5.20;;;;;;;17.63;52.36;99760.50;1665412;84;21818;-80
2022/05/06 07:35:07;;;;;;;9.25;5.08;;;;;;;17.78;53.05;99756.33;1667770;84;21038;-79
2022/05/06 07:37:35;;;;;;;8.23;5.10;;;;;;;17.85;52.62;99759.13;1671862;84;21446;-79
2022/05/06 07:40:04;;;;;;;10.98;5.62;;;;;;;17.96;52.97;99757.78;1671091;84;20944;-79
2022/05/06 07:42:33;;;;;;;7.87;4.92;;;;;;;18.00;51.77;99760.20;1661804;84;20990;-79
2022/05/06 07:44:59;;;;;;;8.53;5.55;;;;;;;18.07;49.70;99768.22;1666870;84;20987;-80
2022/05/06 07:47:26;;;;;;;10.63;4.90;;;;;;;18.17;50.73;99759.45;1665176;84;21002;-81
2022/05/06 07:49:53;;;;;;;10.13;5.33;;;;;;;18.28;50.08;99754.99;1672951;84;21463;-77
2022/05/06 07:52:19;;;;;;;9.68;5.40;;;;;;;18.38;51.29;99756.30;1663385;84;21018;-80
2022/05/06 07:54:46;;;;;;;8.40;4.80;;;;;;;18.36;49.07;99758.12;1438296;83;10000054;-80
2022/05/06 07:57:12;;;;;;;9.45;5.25;;;;;;;18.44;49.88;99761.72;1680151;84;21063;-80
2022/05/06 07:59:39;;;;;;;7.97;5.28;;;;;;;18.50;49.98;99762.73;1683666;84;20952;-79
2022/05/06 08:04:51;;;;;;;10.30;5.92;;;;;;;18.60;49.97;99753.94;1683374;84;20964;-80
2022/05/06 08:07:18;;;;;;;12.85;6.12;;;;;;;18.66;49.52;99758.47;1671248;84;20960;-81
2022/05/06 08:09:44;;;;;;;10.78;4.83;;;;;;;18.65;48.78;99754.59;1687382;84;20988;-79
2022/05/06 08:12:13;;;;;;;8.10;5.40;;;;;;;18.80;49.54;99752.58;1685362;83;21023;-80
2022/05/06 08:14:40;;;;;;;9.98;6.00;;;;;;;18.90;47.59;99752.11;1689647;83;21478;-81
2022/05/06 08:17:07;;;;;;;10.60;6.25;;;;;;;18.97;48.69;99745.15;1695388;84;20980;-76
2022/05/06 08:19:33;;;;;;;10.45;5.70;;;;;;;19.15;49.15;99744.70;1689704;84;21015;-80
2022/05/06 08:22:00;;;;;;;9.78;5.47;;;;;;;19.27;48.87;99751.14;1693195;84;21998;-79
2022/05/06 08:24:27;;;;;;;10.03;5.22;;;;;;;19.30;48.43;99752.75;1693812;84;21003;-76
2022/05/06 08:26:53;;;;;;;9.35;5.50;;;;;;;19.31;46.89;99751.84;1692108;84;20972;-79
2022/05/06 08:29:22;;;;;;;7.55;5.03;;;;;;;19.32;47.69;99746.94;1697421;84;21016;-81
2022/05/06 08:31:48;;;;;;;9.23;5.30;;;;;;;19.42;47.46;99750.84;1693953;84;20951;-79
2022/05/06 08:34:15;;;;;;;6.75;4.70;;;;;;;19.56;47.01;99746.17;1688168;84;21022;-80
2022/05/06 08:36:43;;;;;;;10.82;5.60;;;;;;;19.70;46.74;99745.45;1693339;83;20995;-81
2022/05/06 08:39:11;;;;;;;10.10;5.35;;;;;;;19.83;46.69;99738.61;1700121;84;20995;-77
2022/05/06 08:41:40;;;;;;;16.57;7.85;;;;;;;20.01;47.19;99746.86;1687051;84;21038;-79
2022/05/06 08:52:36;;;;;;;10.38;5.00;;;;;;;20.24;44.89;99736.86;1692685;84;20963;-79
2022/05/06 08:55:06;;;;;;;7.87;5.10;;;;;;;20.34;45.85;99735.41;1690661;84;20999;-80
2022/05/06 08:57:32;;;;;;;11.78;4.85;;;;;;;20.48;45.11;99732.48;1694653;83;20971;-78
2022/05/06 08:59:59;;;;;;;8.78;4.97;;;;;;;20.68;45.68;99735.34;1694511;84;21043;-78
2022/05/06 09:02:26;;;;;;;8.50;4.97;;;;;;;20.74;45.01;99733.68;1689784;84;20947;-78
2022/05/06 09:04:53;;;;;;;10.82;5.67;;;;;;;20.82;45.03;99724.36;1694311;84;20975;-78
2022/05/06 09:07:22;;;;;;;10.03;5.80;;;;;;;20.86;44.29;99728.53;1698561;82;20955;-77
2022/05/06 09:10:14;;;;;;;7.92;4.37;;;;;;;20.88;44.28;99723.16;1696638;82;21006;-79
2022/05/06 09:12:46;;;;;;;12.60;4.72;;;;;;;20.90;42.69;99716.47;1698691;82;21058;-79
2022/05/06 09:18:02;;;;;;;9.08;4.60;;;;;;;21.09;42.76;99717.11;1668433;84;21007;-79
2022/05/06 09:20:29;;;;;;;7.40;4.20;;;;;;;21.16;42.46;99718.43;1679788;84;21011;-77
2022/05/06 09:22:57;;;;;;;10.88;4.92;;;;;;;21.25;42.19;99721.86;1682087;83;21050;-79
2022/05/06 09:25:46;;;;;;;8.00;4.95;;;;;;;21.35;41.54;99718.69;1684058;84;21007;-80
2022/05/06 09:28:30;;;;;;;9.25;4.97;;;;;;;21.43;40.84;99711.17;1685906;84;21507;-81
2022/05/06 09:31:09;;;;;;;9.58;4.62;;;;;;;21.58;39.64;99718.16;1682959;83;21022;-85
2022/05/06 09:33:42;;;;;;;7.37;5.00;;;;;;;21.62;39.88;99712.21;1683578;83;20948;-80
2022/05/06 09:36:26;;;;;;;11.57;4.60;;;;;;;21.67;40.39;99715.44;1678522;84;21499;-80
2022/05/06 09:39:10;;;;;;;7.28;4.45;;;;;;;21.73;40.16;99702.31;1677252;83;20983;-79
2022/05/06 09:41:39;;;;;;;13.83;5.35;;;;;;;21.79;40.50;99709.87;1678153;84;21027;-79
2022/05/06 09:44:08;;;;;;;9.33;5.00;;;;;;;21.96;40.56;99700.38;1683762;84;20972;-81
2022/05/06 09:46:36;;;;;;;9.20;4.80;;;;;;;21.99;38.56;99703.33;1681761;84;22200;-78
2022/05/06 09:49:04;;;;;;;10.00;5.05;;;;;;;22.00;39.36;99701.92;1681913;83;21039;-80
2022/05/06 09:51:35;;;;;;;7.75;4.60;;;;;;;22.06;39.67;99700.66;1677621;84;20972;-79
2022/05/06 09:54:05;;;;;;;8.28;4.65;;;;;;;22.23;38.89;99696.47;1679518;84;21027;-79
2022/05/06 09:56:33;;;;;;;8.00;4.55;;;;;;;22.16;37.65;99700.47;1679704;83;20976;-78
2022/05/06 09:59:00;;;;;;;6.17;4.17;;;;;;;22.27;37.78;99698.48;1681771;83;20999;-79
2022/05/06 10:01:26;;;;;;;12.15;4.67;;;;;;;22.32;38.37;99694.21;1678360;84;20995;-78
2022/05/06 10:03:53;;;;;;;7.78;4.53;;;;;;;22.40;38.27;99697.21;1679953;83;21003;-79
2022/05/06 10:06:24;;;;;;;7.58;4.62;;;;;;;22.41;38.73;99683.88;1677554;84;21606;-80
2022/05/06 10:08:55;;;;;;;8.38;4.50;;;;;;;22.61;39.17;99678.59;1684193;84;20968;-78
2022/05/06 10:11:28;;;;;;;8.08;4.05;;;;;;;22.72;37.52;99673.93;1681683;83;21000;-79
2022/05/06 10:13:59;;;;;;;8.88;5.03;;;;;;;22.88;38.47;99676.41;1681308;83;21059;-78
2022/05/06 10:16:37;;;;;;;10.95;4.60;;;;;;;23.02;36.70;99676.36;1681801;84;21120;-78
2022/05/06 10:19:04;;;;;;;11.28;4.55;;;;;;;22.95;37.26;99671.53;1682145;84;21498;-81
2022/05/06 10:21:50;;;;;;;11.70;5.00;;;;;;;22.99;37.83;99663.26;1679096;84;20939;-79
2022/05/06 10:24:17;;;;;;;9.43;4.28;;;;;;;23.05;37.33;99669.98;1683166;84;21007;-78
2022/05/06 10:26:53;;;;;;;10.53;4.10;;;;;;;23.16;37.74;99664.81;1683759;84;20972;-79
2022/05/06 10:32:29;;;;;;;10.95;4.20;;;;;;;23.12;36.50;99658.02;1671837;84;21470;-78
2022/05/06 10:35:05;;;;;;;9.63;4.58;;;;;;;23.37;37.51;99657.66;1678765;83;20995;-74
2022/05/06 10:37:49;;;;;;;8.15;4.00;;;;;;;23.39;36.30;99652.60;1681684;84;21131;-75
2022/05/06 10:40:31;;;;;;;5.95;3.92;;;;;;;23.27;37.22;99655.27;1682702;83;21027;-74
2022/05/06 10:42:56;;;;;;;7.17;3.62;;;;;;;23.39;37.61;99651.76;1681771;83;21099;-75
2022/05/06 10:45:32;;;;;;;8.03;4.35;;;;;;;23.46;37.76;99643.75;1676682;83;21049;-75
2022/05/06 10:47:59;;;;;;;8.93;4.00;;;;;;;23.57;37.46;99629.23;1682377;84;20991;-76
2022/05/06 10:50:29;;;;;;;8.90;4.45;;;;;;;23.75;36.74;99635.53;1678238;84;20964;-74
2022/05/06 10:52:54;;;;;;;6.55;4.20;;;;;;;23.90;37.39;99630.49;1666279;84;21067;-75
2022/05/06 10:55:23;;;;;;;6.00;3.72;;;;;;;24.11;37.25;99633.87;1680825;84;21047;-75
2022/05/06 10:57:56;;;;;;;9.95;4.10;;;;;;;24.32;36.74;99634.96;1679318;84;21010;-75
2022/05/06 11:00:27;;;;;;;10.58;4.20;;;;;;;24.41;36.54;99633.42;1680640;84;20990;-76
2022/05/06 11:02:53;;;;;;;8.03;3.75;;;;;;;24.45;36.64;99627.41;1681581;84;21780;-74
2022/05/06 11:05:22;;;;;;;11.15;4.00;;;;;;;24.70;36.92;99627.30;1679316;83;21636;-75
2022/05/06 11:07:50;;;;;;;10.43;4.08;;;;;;;24.85;36.33;99620.45;1682172;83;21582;-74
2022/05/06 11:10:20;;;;;;;6.58;3.92;;;;;;;24.87;35.51;99615.39;1661755;84;20999;-82
2022/05/06 11:12:50;;;;;;;7.60;4.12;;;;;;;24.78;35.40;99606.78;1682135;83;20983;-77
2022/05/06 11:15:29;;;;;;;6.87;3.85;;;;;;;24.68;34.75;99605.30;1684597;83;21495;-78
2022/05/06 11:18:05;;;;;;;7.95;3.80;;;;;;;24.56;34.98;99607.06;1671559;84;21623;-77
2022/05/06 11:20:35;;;;;;;9.05;3.90;;;;;;;24.46;34.63;99611.84;1683764;83;21508;-79
2022/05/06 11:23:13;;;;;;;5.28;3.37;;;;;;;24.63;35.64;99606.61;1682633;84;21456;-76
2022/05/06 11:25:47;;;;;;;8.25;3.70;;;;;;;24.72;35.48;99596.13;1680008;83;21012;-77
2022/05/06 11:28:21;;;;;;;6.22;3.80;;;;;;;24.78;35.03;99602.80;1684226;83;21036;-77
2022/05/06 11:30:50;;;;;;;7.70;3.72;;;;;;;24.93;34.16;99596.77;1678557;83;21024;-78
2022/05/06 11:33:27;;;;;;;9.28;3.75;;;;;;;24.85;35.04;99592.52;1685544;83;21004;-78
2022/05/06 11:36:03;;;;;;;9.38;3.40;;;;;;;24.89;34.45;99589.99;1684855;83;20980;-78
2022/05/06 11:38:35;;;;;;;8.33;3.58;;;;;;;25.13;34.99;99589.94;1683435;83;21017;-76
2022/05/06 11:41:14;;;;;;;8.53;4.35;;;;;;;25.22;33.46;99581.74;1682236;84;20976;-78
2022/05/06 11:43:43;;;;;;;12.03;3.60;;;;;;;25.34;33.44;99579.44;1675936;84;20977;-77
2022/05/06 11:49:05;;;;;;;9.68;3.65;;;;;;;25.67;33.80;99581.24;1678028;84;21448;-75
2022/05/06 11:51:36;;;;;;;8.08;3.95;;;;;;;25.85;33.59;99574.91;1680480;84;21079;-76
2022/05/06 11:54:05;;;;;;;7.15;3.70;;;;;;;26.10;33.74;99571.59;1680682;83;21074;-76
2022/05/06 11:56:33;;;;;;;7.22;3.98;;;;;;;26.30;33.59;99568.16;1680756;84;20984;-75
2022/05/06 11:59:01;;;;;;;12.33;3.83;;;;;;;26.33;32.76;99559.05;1680386;84;21540;-75
2022/05/06 12:01:34;;;;;;;5.53;3.30;;;;;;;26.28;33.25;99558.11;1678493;84;21107;-77
2022/05/06 12:04:03;;;;;;;6.70;3.40;;;;;;;26.49;33.33;99556.78;1677470;84;20988;-75
2022/05/06 12:06:31;;;;;;;5.92;3.55;;;;;;;26.81;33.09;99553.73;1680169;84;21019;-75
2022/05/06 12:09:11;;;;;;;6.12;3.60;;;;;;;26.75;32.20;99549.27;1674113;84;20957;-74
2022/05/06 12:11:40;;;;;;;9.45;3.75;;;;;;;26.78;31.76;99548.18;1678978;83;21538;-76
2022/05/06 12:14:09;;;;;;;7.17;3.60;;;;;;;26.91;32.10;99547.46;1682640;83;20999;-75
2022/05/06 12:16:36;;;;;;;12.23;3.30;;;;;;;27.05;31.19;99550.27;1682182;82;21055;-76
2022/05/06 12:19:03;;;;;;;6.08;3.40;;;;;;;27.27;31.59;99541.77;1679769;84;21462;-77